Time;durP1;ratioP1;P1;durP2;ratioP2;P2;SDS_P1;SDS_P2;PMS_P1;PMS_P2;Temp;Humidity;BMP_temperature;BMP_pressure;BME280_temperature;BME280_humidity;BME280_pressure;Samples;Min_cycle;Max_cycle;Signal;HPM_P1;HPM_P2
2021/07/20 00:02:00;;;;;;;;;;;;;;;22.78;86.59;98933.44;5053703;28;2012;-60
2021/07/20 00:04:27;;;;;;;;;;;;;;;22.77;86.70;98935.50;5053810;28;982;-60
2021/07/20 00:06:54;;;;;;;;;;;;;;;22.78;86.86;98930.63;5053949;28;912;-60
2021/07/20 00:09:21;;;;;;;;;;;;;;;22.76;86.69;98931.13;5053834;28;853;-60
2021/07/20 00:11:48;;;;;;;;;;;;;;;22.70;86.58;98933.16;5054013;28;814;-60
2021/07/20 00:14:14;;;;;;;;;;;;;;;22.60;86.85;98929.03;5053702;28;990;-60
2021/07/20 00:16:41;;;;;;;;;;;;;;;22.55;87.12;98924.94;5053643;28;822;-60
2021/07/20 00:19:08;;;;;;;;;;;;;;;22.57;87.29;98927.22;5053688;28;866;-60
2021/07/20 00:21:35;;;;;;;;;;;;;;;22.64;87.25;98926.75;5035570;28;1882;-60
2021/07/20 00:24:03;;;;;;;;;;;;;;;22.74;87.49;98935.72;5053625;28;806;-60
2021/07/20 00:26:29;;;;;;;;;;;;;;;22.81;87.23;98927.56;5053764;28;857;-60
2021/07/20 00:28:56;;;;;;;;;;;;;;;22.84;87.17;98929.34;5053479;28;853;-60
2021/07/20 00:31:23;;;;;;;;;;;;;;;22.88;86.80;98931.16;5053391;28;794;-60
2021/07/20 00:33:48;;;;;;;;;;;;;;;22.87;86.96;98936.00;5053345;28;814;-60
2021/07/20 00:36:15;;;;;;;;;;;;;;;22.86;86.74;98934.47;5053250;28;1192;-60
2021/07/20 00:38:42;;;;;;;;;;;;;;;22.78;86.73;98927.81;5053577;28;833;-60
2021/07/20 00:41:09;;;;;;;;;;;;;;;22.65;86.66;98928.28;5052969;28;1967;-60
2021/07/20 00:43:36;;;;;;;;;;;;;;;22.50;87.11;98924.91;5052982;28;885;-60
2021/07/20 00:46:03;;;;;;;;;;;;;;;22.38;86.96;98932.50;5053099;28;834;-60
2021/07/20 00:48:29;;;;;;;;;;;;;;;22.31;87.54;98928.13;5053055;28;861;-60
2021/07/20 00:50:56;;;;;;;;;;;;;;;22.25;87.59;98930.16;5053332;28;921;-60
2021/07/20 00:53:23;;;;;;;;;;;;;;;22.15;87.64;98926.75;5053027;28;892;-60
2021/07/20 00:55:50;;;;;;;;;;;;;;;22.05;87.90;98921.84;5052782;28;921;-60
2021/07/20 00:58:17;;;;;;;;;;;;;;;21.95;87.91;98924.84;5052878;28;858;-60
2021/07/20 01:00:48;;;;;;;;;;;;;;;21.87;87.90;98920.97;5052728;28;1878;-60
2021/07/20 01:03:16;;;;;;;;;;;;;;;21.80;88.08;98925.00;5052792;28;842;-60
2021/07/20 01:05:41;;;;;;;;;;;;;;;21.74;88.45;98921.41;5052739;28;896;-60
2021/07/20 01:08:09;;;;;;;;;;;;;;;21.69;88.18;98921.38;5052680;28;889;-60
2021/07/20 01:10:37;;;;;;;;;;;;;;;21.65;88.25;98920.81;5052615;28;861;-60
2021/07/20 01:13:04;;;;;;;;;;;;;;;21.59;88.61;98920.78;5052785;28;862;-60
2021/07/20 01:15:31;;;;;;;;;;;;;;;21.61;88.86;98921.03;5052506;28;830;-60
2021/07/20 01:17:59;;;;;;;;;;;;;;;21.67;88.77;98912.66;5052552;28;885;-60
2021/07/20 01:20:27;;;;;;;;;;;;;;;21.71;88.87;98916.00;5052634;28;1878;-60
2021/07/20 01:23:22;;;;;;;;;;;;;;;21.75;88.99;98914.50;5052336;28;850;-60
2021/07/20 01:25:50;;;;;;;;;;;;;;;21.74;88.76;98918.59;5052374;28;810;-60
2021/07/20 01:28:18;;;;;;;;;;;;;;;21.73;88.54;98914.22;5052187;28;854;-60
2021/07/20 01:30:46;;;;;;;;;;;;;;;21.73;88.63;98919.84;5052101;28;959;-60
2021/07/20 01:33:14;;;;;;;;;;;;;;;21.73;88.93;98914.22;5052588;28;878;-60
2021/07/20 01:35:43;;;;;;;;;;;;;;;21.74;88.95;98921.41;5052710;28;972;-60
2021/07/20 01:38:11;;;;;;;;;;;;;;;21.72;88.73;98926.75;5050551;28;1467;-60
2021/07/20 01:40:39;;;;;;;;;;;;;;;21.70;88.70;98931.31;5052131;28;1906;-60
2021/07/20 01:43:06;;;;;;;;;;;;;;;21.70;88.60;98926.50;5051966;28;850;-60
2021/07/20 01:45:35;;;;;;;;;;;;;;;21.75;88.74;98928.56;5052236;28;802;-60
2021/07/20 01:48:02;;;;;;;;;;;;;;;21.83;88.70;98934.50;5051931;28;885;-60
2021/07/20 01:50:30;;;;;;;;;;;;;;;21.91;88.92;98937.63;5052002;28;807;-60
2021/07/20 01:52:57;;;;;;;;;;;;;;;21.98;88.62;98934.34;5051259;28;845;-60
2021/07/20 01:55:25;;;;;;;;;;;;;;;22.08;88.99;98932.09;5051879;28;818;-60
2021/07/20 01:57:53;;;;;;;;;;;;;;;22.19;88.92;98937.75;5051774;28;891;-60
2021/07/20 02:00:20;;;;;;;;;;;;;;;22.24;88.71;98941.94;5051856;28;1886;-60
2021/07/20 02:03:16;;;;;;;;;;;;;;;22.25;88.58;98944.22;5051797;28;815;-60
2021/07/20 02:08:34;;;;;;;;;;;;;;;22.29;88.22;98935.56;5052089;28;668;-60
2021/07/20 02:11:02;;;;;;;;;;;;;;;22.30;88.00;98934.28;5051914;28;908;-60
2021/07/20 02:13:38;;;;;;;;;;;;;;;22.27;87.78;98930.41;5051905;28;806;-60
2021/07/20 02:16:06;;;;;;;;;;;;;;;22.26;87.23;98930.94;5051475;28;866;-60
2021/07/20 02:18:33;;;;;;;;;;;;;;;22.21;86.83;98929.59;5051515;28;869;-60
2021/07/20 02:21:05;;;;;;;;;;;;;;;22.13;87.09;98929.31;5051448;28;1882;-60
2021/07/20 02:23:33;;;;;;;;;;;;;;;22.04;86.94;98926.72;5051394;28;921;-60
2021/07/20 02:26:02;;;;;;;;;;;;;;;21.91;86.86;98929.97;5051454;28;861;-60
2021/07/20 02:28:29;;;;;;;;;;;;;;;21.81;86.84;98923.75;5051381;28;886;-60
2021/07/20 02:30:56;;;;;;;;;;;;;;;21.73;87.04;98927.53;5033565;28;842;-60
2021/07/20 02:33:23;;;;;;;;;;;;;;;21.61;86.97;98937.91;5051354;28;881;-60
2021/07/20 02:35:50;;;;;;;;;;;;;;;21.52;86.92;98927.63;5051652;28;959;-60
2021/07/20 02:38:19;;;;;;;;;;;;;;;21.47;87.08;98933.22;5051020;28;1237;-60
2021/07/20 02:40:46;;;;;;;;;;;;;;;21.43;87.01;98930.63;5051390;28;1906;-60
2021/07/20 02:43:14;;;;;;;;;;;;;;;21.45;87.38;98932.94;5051609;28;803;-60
2021/07/20 02:45:41;;;;;;;;;;;;;;;21.49;87.53;98937.06;5051516;28;826;-60
2021/07/20 02:48:08;;;;;;;;;;;;;;;21.58;86.96;98927.69;5051559;28;880;-60
2021/07/20 02:50:35;;;;;;;;;;;;;;;21.66;86.83;98931.56;5051493;28;862;-60
2021/07/20 02:53:03;;;;;;;;;;;;;;;21.74;86.38;98929.84;5051502;28;854;-60
2021/07/20 02:55:30;;;;;;;;;;;;;;;21.79;86.01;98931.16;5051325;28;869;-60
2021/07/20 02:57:58;;;;;;;;;;;;;;;21.79;85.79;98928.34;5051446;28;849;-60
2021/07/20 03:00:25;;;;;;;;;;;;;;;21.81;85.87;98931.44;5050965;28;1917;-60
2021/07/20 03:02:52;;;;;;;;;;;;;;;21.81;85.74;98929.38;5051171;28;815;-60
2021/07/20 03:05:19;;;;;;;;;;;;;;;21.76;85.24;98934.97;5052433;28;822;-60
2021/07/20 03:07:56;;;;;;;;;;;;;;;21.77;85.57;98930.88;5054914;28;887;-60
2021/07/20 03:10:25;;;;;;;;;;;;;;;21.81;85.06;98937.06;5055133;28;815;-60
2021/07/20 03:12:52;;;;;;;;;;;;;;;21.80;85.12;98933.44;5054883;28;866;-60
2021/07/20 03:15:19;;;;;;;;;;;;;;;21.82;84.72;98928.09;5054795;28;897;-60
2021/07/20 03:17:46;;;;;;;;;;;;;;;21.88;84.34;98938.63;5055064;28;798;-60
2021/07/20 03:20:15;;;;;;;;;;;;;;;21.99;84.19;98941.50;5054684;28;1953;-60
2021/07/20 03:22:42;;;;;;;;;;;;;;;22.13;83.74;98942.63;5054652;28;810;-60
2021/07/20 03:25:11;;;;;;;;;;;;;;;22.18;83.39;98942.63;5054791;28;914;-60
2021/07/20 03:27:39;;;;;;;;;;;;;;;22.18;82.91;98942.63;5054514;28;960;-60
2021/07/20 03:30:07;;;;;;;;;;;;;;;22.17;83.16;98945.97;5054690;28;862;-60
2021/07/20 03:32:34;;;;;;;;;;;;;;;22.17;83.11;98951.59;5055136;28;826;-60
2021/07/20 03:35:01;;;;;;;;;;;;;;;22.25;83.00;98952.66;5054591;28;907;-60
2021/07/20 03:37:28;;;;;;;;;;;;;;;22.37;82.36;98959.91;5054956;28;786;-60
2021/07/20 03:39:57;;;;;;;;;;;;;;;22.50;82.28;98964.31;5054210;28;1409;-60
2021/07/20 03:42:24;;;;;;;;;;;;;;;22.63;81.66;98959.00;5054507;28;1975;-60
2021/07/20 03:44:52;;;;;;;;;;;;;;;22.80;80.26;98957.00;5054438;28;818;-60
2021/07/20 03:47:19;;;;;;;;;;;;;;;23.02;78.75;98964.78;5054185;28;849;-60
2021/07/20 03:49:47;;;;;;;;;;;;;;;23.06;77.94;98958.88;5054268;28;799;-60
2021/07/20 03:52:14;;;;;;;;;;;;;;;22.88;78.17;98957.28;5054133;28;858;-60
2021/07/20 03:54:40;;;;;;;;;;;;;;;22.72;78.36;98963.63;5054118;28;818;-60
2021/07/20 03:57:07;;;;;;;;;;;;;;;22.66;78.10;98962.84;5054143;28;861;-60
2021/07/20 03:59:34;;;;;;;;;;;;;;;22.62;77.81;98972.31;5053998;28;949;-60
2021/07/20 04:02:02;;;;;;;;;;;;;;;22.65;77.84;98966.94;5054059;28;1968;-60
2021/07/20 04:04:38;;;;;;;;;;;;;;;22.70;77.83;98969.00;5053848;28;803;-60
2021/07/20 04:07:06;;;;;;;;;;;;;;;22.83;77.22;98966.50;5053876;28;849;-60
2021/07/20 04:09:34;;;;;;;;;;;;;;;22.87;76.73;98971.88;5053874;28;865;-60
2021/07/20 04:12:01;;;;;;;;;;;;;;;22.92;76.10;98965.50;5053765;28;908;-60
2021/07/20 04:14:28;;;;;;;;;;;;;;;23.05;75.62;98970.69;5053690;28;802;-60
2021/07/20 04:16:55;;;;;;;;;;;;;;;23.14;75.51;98976.06;5053089;28;786;-61
2021/07/20 04:19:23;;;;;;;;;;;;;;;23.16;75.49;98974.28;5053624;28;822;-60
2021/07/20 04:21:50;;;;;;;;;;;;;;;23.24;74.95;98969.69;5053748;28;1890;-60
2021/07/20 04:24:17;;;;;;;;;;;;;;;23.34;74.73;98975.84;5053480;28;889;-60
2021/07/20 04:26:44;;;;;;;;;;;;;;;23.45;74.84;98986.38;5053526;28;866;-60
2021/07/20 04:29:11;;;;;;;;;;;;;;;23.65;74.26;98985.34;5053425;28;961;-60
2021/07/20 04:31:39;;;;;;;;;;;;;;;23.98;73.67;98983.81;5053302;28;876;-60
2021/07/20 04:34:07;;;;;;;;;;;;;;;24.40;72.63;98981.94;5035521;28;1148;-60
2021/07/20 04:36:35;;;;;;;;;;;;;;;24.86;71.59;98989.72;5053642;28;894;-60
2021/07/20 04:39:02;;;;;;;;;;;;;;;25.30;70.26;98972.28;5053143;28;1429;-60
2021/07/20 04:41:29;;;;;;;;;;;;;;;25.39;70.17;98977.59;5053173;28;1922;-60
2021/07/20 04:43:57;;;;;;;;;;;;;;;25.35;70.91;98977.13;5053242;28;830;-60
2021/07/20 04:46:24;;;;;;;;;;;;;;;25.30;71.41;98975.88;5053086;28;893;-60
2021/07/20 04:48:51;;;;;;;;;;;;;;;25.35;71.91;98977.13;5053043;28;799;-60
2021/07/20 04:51:17;;;;;;;;;;;;;;;25.39;71.88;98980.44;5053065;28;850;-60
2021/07/20 04:53:45;;;;;;;;;;;;;;;25.50;71.70;98988.06;5052923;28;881;-60
2021/07/20 04:56:12;;;;;;;;;;;;;;;25.68;71.55;98981.75;5052972;28;880;-60
2021/07/20 04:58:38;;;;;;;;;;;;;;;25.87;70.62;98987.53;5034871;28;1180;-60
2021/07/20 05:01:05;;;;;;;;;;;;;;;26.03;70.10;98985.84;5052754;28;1981;-60
2021/07/20 05:03:33;;;;;;;;;;;;;;;26.21;69.45;98987.97;5052848;28;877;-60
2021/07/20 05:06:00;;;;;;;;;;;;;;;26.32;69.17;98987.09;5052673;28;874;-60
2021/07/20 05:13:36;;;;;;;;;;;;;;;26.73;68.12;98996.69;5867233;22;1683;-60
2021/07/20 05:16:05;;;;;;;;;;;;;;;26.86;67.48;98988.28;5053155;28;830;-60
2021/07/20 05:18:32;;;;;;;;;;;;;;;27.17;67.00;98992.50;5052868;28;889;-60
2021/07/20 05:20:59;;;;;;;;;;;;;;;27.59;65.52;98997.81;5052347;28;1985;-60
2021/07/20 05:23:27;;;;;;;;;;;;;;;28.12;63.64;98995.13;5035035;28;834;-60
2021/07/20 05:25:57;;;;;;;;;;;;;;;28.63;61.69;98994.94;5052237;28;1072;-60
2021/07/20 05:28:24;;;;;;;;;;;;;;;29.04;61.37;98993.59;5051522;28;798;-60
2021/07/20 05:30:54;;;;;;;;;;;;;;;29.50;60.13;98996.94;5052254;28;841;-60
2021/07/20 05:33:21;;;;;;;;;;;;;;;30.03;58.52;99001.63;5052300;28;889;-60
2021/07/20 05:35:56;;;;;;;;;;;;;;;30.67;56.50;98993.69;5052249;28;834;-61
2021/07/20 05:38:24;;;;;;;;;;;;;;;31.22;55.04;98995.47;5052121;28;853;-60
2021/07/20 05:40:53;;;;;;;;;;;;;;;31.49;53.81;98993.06;5052009;28;1910;-60
2021/07/20 05:43:20;;;;;;;;;;;;;;;31.53;53.30;98997.06;5051981;28;898;-60
2021/07/20 05:45:47;;;;;;;;;;;;;;;32.38;51.47;98996.31;5052345;28;786;-60
2021/07/20 05:48:19;;;;;;;;;;;;;;;33.36;49.31;99000.16;5052126;28;858;-60
2021/07/20 05:50:50;;;;;;;;;;;;;;;34.05;47.27;98998.91;5051898;28;882;-60
2021/07/20 05:53:18;;;;;;;;;;;;;;;34.61;45.71;98998.59;5051910;28;1241;-60
2021/07/20 05:55:47;;;;;;;;;;;;;;;35.11;44.39;98995.50;5051849;28;830;-60
2021/07/20 05:58:14;;;;;;;;;;;;;;;35.68;43.44;98987.81;5051780;28;923;-60
2021/07/20 06:00:40;;;;;;;;;;;;;;;35.94;43.19;98997.00;5051628;28;1914;-60
2021/07/20 06:03:11;;;;;;;;;;;;;;;36.47;41.61;98995.28;5051804;28;806;-60
2021/07/20 06:05:38;;;;;;;;;;;;;;;36.72;40.52;98997.91;5051748;28;885;-60
2021/07/20 06:08:04;;;;;;;;;;;;;;;36.93;39.12;98997.25;5051708;28;814;-60
2021/07/20 06:10:31;;;;;;;;;;;;;;;37.24;38.93;98998.78;5051584;28;842;-60
2021/07/20 06:12:58;;;;;;;;;;;;;;;37.32;38.77;98996.44;5051619;28;917;-60
2021/07/20 06:15:26;;;;;;;;;;;;;;;37.27;38.33;98997.53;5051391;28;1454;-60
2021/07/20 06:17:53;;;;;;;;;;;;;;;36.90;38.97;98989.09;5051507;28;881;-60
2021/07/20 06:20:20;;;;;;;;;;;;;;;37.20;38.16;98993.47;5051430;28;1910;-60
2021/07/20 06:22:52;;;;;;;;;;;;;;;37.30;37.73;98993.44;5051538;28;814;-60
2021/07/20 06:25:21;;;;;;;;;;;;;;;37.49;37.53;98996.28;5051733;28;885;-60
2021/07/20 06:27:48;;;;;;;;;;;;;;;37.23;37.36;98995.13;5033801;28;1293;-60
2021/07/20 06:30:15;;;;;;;;;;;;;;;37.51;36.66;99002.19;5051717;28;948;-60
2021/07/20 06:32:42;;;;;;;;;;;;;;;37.52;36.32;98997.16;5051836;28;845;-60
2021/07/20 06:35:15;;;;;;;;;;;;;;;37.67;35.38;99002.59;5051775;28;810;-60
2021/07/20 06:37:44;;;;;;;;;;;;;;;37.51;36.32;98987.78;5051636;28;858;-60
2021/07/20 06:40:14;;;;;;;;;;;;;;;38.06;35.33;98996.66;5054177;28;826;-60
2021/07/20 06:42:41;;;;;;;;;;;;;;;38.42;34.57;98994.72;5055390;28;829;-59
2021/07/20 06:45:08;;;;;;;;;;;;;;;38.08;34.29;98996.78;5055318;28;908;-60
2021/07/20 06:47:39;;;;;;;;;;;;;;;37.93;33.74;98992.13;5055391;28;818;-60
2021/07/20 06:50:08;;;;;;;;;;;;;;;38.26;32.82;98993.63;5055265;28;810;-60
2021/07/20 06:52:34;;;;;;;;;;;;;;;38.18;31.90;98985.94;5055316;28;814;-59
2021/07/20 06:55:02;;;;;;;;;;;;;;;37.97;33.21;98989.53;5055160;28;830;-60
2021/07/20 06:57:30;;;;;;;;;;;;;;;37.88;31.72;98980.94;5055157;28;795;-60
2021/07/20 06:59:59;;;;;;;;;;;;;;;38.25;30.49;98986.38;5037273;28;811;-60
2021/07/20 07:02:26;;;;;;;;;;;;;;;38.63;30.42;98979.56;5054989;28;1882;-59
2021/07/20 07:04:58;;;;;;;;;;;;;;;38.66;30.83;98978.31;5055686;28;830;-59
2021/07/20 07:07:27;;;;;;;;;;;;;;;37.69;31.03;98982.56;5055022;28;856;-59
2021/07/20 07:09:55;;;;;;;;;;;;;;;36.50;31.30;98979.69;5054989;28;805;-59
2021/07/20 07:12:22;;;;;;;;;;;;;;;35.90;33.18;98980.19;5054862;28;826;-59
2021/07/20 07:14:50;;;;;;;;;;;;;;;35.60;34.67;98989.28;5054823;28;1367;-59
2021/07/20 07:17:16;;;;;;;;;;;;;;;35.82;35.41;98979.53;5054854;28;834;-59
2021/07/20 07:19:47;;;;;;;;;;;;;;;36.41;34.42;98983.31;5055018;28;904;-59
2021/07/20 07:22:14;;;;;;;;;;;;;;;36.79;33.92;98976.84;5055028;28;1914;-59
2021/07/20 07:24:42;;;;;;;;;;;;;;;37.12;32.75;98978.47;5054646;28;923;-59
2021/07/20 07:27:10;;;;;;;;;;;;;;;37.59;30.56;98976.81;5054670;28;881;-59
2021/07/20 07:29:37;;;;;;;;;;;;;;;37.65;31.00;98970.72;5054601;28;818;-59
2021/07/20 07:32:04;;;;;;;;;;;;;;;38.06;30.72;98975.69;5054553;28;845;-59
2021/07/20 07:34:31;;;;;;;;;;;;;;;38.29;31.24;98975.09;5036564;28;1286;-59
2021/07/20 07:36:58;;;;;;;;;;;;;;;38.11;31.58;98972.50;5054546;28;826;-59
2021/07/20 07:39:25;;;;;;;;;;;;;;;38.10;31.22;98975.97;5054347;28;810;-59
2021/07/20 07:41:54;;;;;;;;;;;;;;;38.31;30.57;98975.97;5054211;28;1886;-59
2021/07/20 07:44:22;;;;;;;;;;;;;;;39.03;30.92;98966.28;5019935;28;1290;-59
2021/07/20 07:46:49;;;;;;;;;;;;;;;38.83;29.56;98970.72;5054251;28;863;-59
2021/07/20 07:49:16;;;;;;;;;;;;;;;38.57;29.85;98965.47;5054253;28;846;-59
2021/07/20 07:51:44;;;;;;;;;;;;;;;38.13;30.16;98968.97;5053203;28;854;-59
2021/07/20 07:54:12;;;;;;;;;;;;;;;38.23;30.25;98971.78;5054205;28;885;-59
2021/07/20 07:56:39;;;;;;;;;;;;;;;38.59;30.56;98971.38;5053964;28;953;-59
2021/07/20 07:59:08;;;;;;;;;;;;;;;38.94;30.44;98967.09;5054118;28;826;-59
2021/07/20 08:01:39;;;;;;;;;;;;;;;38.97;29.49;98968.78;5054315;28;1890;-59
2021/07/20 08:04:07;;;;;;;;;;;;;;;38.47;29.40;98966.91;5036251;28;1629;-59
2021/07/20 08:06:35;;;;;;;;;;;;;;;38.76;28.26;98976.09;5036221;28;921;-59
2021/07/20 08:09:02;;;;;;;;;;;;;;;38.76;28.53;98967.44;5053853;28;803;-59
2021/07/20 08:11:30;;;;;;;;;;;;;;;39.45;27.12;98967.50;5053778;28;905;-59
2021/07/20 08:13:58;;;;;;;;;;;;;;;39.70;25.48;98966.88;5053702;28;1271;-60
2021/07/20 08:16:25;;;;;;;;;;;;;;;40.16;24.96;98961.69;5053776;28;870;-59
2021/07/20 08:18:52;;;;;;;;;;;;;;;40.37;25.43;98957.88;5053699;28;783;-59
2021/07/20 08:21:19;;;;;;;;;;;;;;;40.52;26.00;98965.25;5053470;28;1910;-59
2021/07/20 08:23:46;;;;;;;;;;;;;;;40.29;25.51;98969.00;5053684;28;803;-59
2021/07/20 08:26:24;;;;;;;;;;;;;;;39.70;24.08;98969.78;5053547;28;886;-59
2021/07/20 08:28:59;;;;;;;;;;;;;;;38.85;25.41;98971.59;5053407;28;949;-59
2021/07/20 08:31:28;;;;;;;;;;;;;;;39.53;26.72;98973.03;5053788;28;810;-59
2021/07/20 08:33:58;;;;;;;;;;;;;;;40.09;26.15;98959.81;5053353;28;1034;-59
2021/07/20 08:36:26;;;;;;;;;;;;;;;40.28;24.47;98953.75;5053308;28;870;-59
2021/07/20 08:38:55;;;;;;;;;;;;;;;40.07;25.73;98953.91;5053478;28;811;-59
2021/07/20 08:41:36;;;;;;;;;;;;;;;39.94;25.80;98964.75;5053054;28;1941;-59
2021/07/20 08:44:12;;;;;;;;;;;;;;;39.45;25.93;98964.59;5053149;28;870;-59
2021/07/20 08:46:48;;;;;;;;;;;;;;;39.08;25.90;98956.50;5035236;28;1257;-59
2021/07/20 08:49:33;;;;;;;;;;;;;;;38.70;27.30;98951.84;5053464;28;861;-59
2021/07/20 08:52:00;;;;;;;;;;;;;;;38.33;27.43;98955.19;5053184;28;906;-59
2021/07/20 08:54:29;;;;;;;;;;;;;;;38.54;28.19;98955.19;5053610;28;826;-59
2021/07/20 08:56:59;;;;;;;;;;;;;;;38.77;27.85;98953.75;5052907;28;874;-59
2021/07/20 08:59:29;;;;;;;;;;;;;;;39.07;27.59;98951.34;5053003;28;813;-59
2021/07/20 09:02:01;;;;;;;;;;;;;;;39.08;27.50;98964.41;5052553;28;1886;-59
2021/07/20 09:04:48;;;;;;;;;;;;;;;38.94;26.29;98958.44;5052896;28;830;-59
2021/07/20 09:07:16;;;;;;;;;;;;;;;38.78;27.49;98958.16;5052844;28;802;-59
2021/07/20 09:09:47;;;;;;;;;;;;;;;39.27;27.76;98958.41;5052521;28;841;-59
2021/07/20 09:12:25;;;;;;;;;;;;;;;39.49;26.93;98955.44;5052681;28;905;-59
2021/07/20 09:15:00;;;;;;;;;;;;;;;39.15;27.83;98958.38;5052386;28;1184;-59
2021/07/20 09:17:29;;;;;;;;;;;;;;;38.82;27.78;98949.75;5052511;28;935;-59
2021/07/20 09:19:58;;;;;;;;;;;;;;;38.66;28.95;98952.31;5052427;28;931;-59
2021/07/20 09:22:31;;;;;;;;;;;;;;;38.28;29.09;98951.25;5052382;28;1975;-59
2021/07/20 09:25:04;;;;;;;;;;;;;;;37.80;29.54;98943.66;5034517;28;1172;-59
2021/07/20 09:27:34;;;;;;;;;;;;;;;37.86;28.44;98954.84;5034476;28;1183;-59
2021/07/20 09:30:04;;;;;;;;;;;;;;;37.80;29.16;98953.06;5052213;28;875;-59
2021/07/20 09:32:39;;;;;;;;;;;;;;;37.96;28.23;98955.53;5052211;28;818;-59
2021/07/20 09:35:14;;;;;;;;;;;;;;;37.50;28.23;98954.53;5052183;28;909;-59
2021/07/20 09:37:48;;;;;;;;;;;;;;;37.43;28.43;98952.59;5052172;28;782;-59
2021/07/20 09:40:30;;;;;;;;;;;;;;;37.16;27.94;98956.47;5052015;28;842;-59
2021/07/20 09:43:17;;;;;;;;;;;;;;;36.83;28.88;98953.34;5052074;28;889;-59
2021/07/20 09:45:45;;;;;;;;;;;;;;;37.06;28.94;98961.47;5051905;28;2082;-59
2021/07/20 09:48:26;;;;;;;;;;;;;;;36.94;29.45;98951.97;5052156;28;810;-59
2021/07/20 09:51:11;;;;;;;;;;;;;;;36.57;30.01;98952.13;5034287;28;961;-59
2021/07/20 09:53:40;;;;;;;;;;;;;;;36.41;31.63;98951.69;5051993;28;878;-59
2021/07/20 09:56:22;;;;;;;;;;;;;;;36.30;31.21;98944.41;5051902;28;865;-59
2021/07/20 09:59:08;;;;;;;;;;;;;;;36.23;30.48;98941.66;5034088;28;1599;-59
2021/07/20 10:01:45;;;;;;;;;;;;;;;35.72;29.22;98944.25;5051683;28;1882;-59
2021/07/20 10:04:15;;;;;;;;;;;;;;;35.04;31.25;98941.81;5051701;28;910;-59
2021/07/20 10:07:08;;;;;;;;;;;;;;;34.80;33.15;98943.44;5051723;28;1042;-59
2021/07/20 10:09:58;;;;;;;;;;;;;;;35.15;32.32;98937.66;5028342;28;1191;-59
2021/07/20 10:12:25;;;;;;;;;;;;;;;34.99;33.52;98928.47;5023306;28;1093;-59
2021/07/20 10:14:57;;;;;;;;;;;;;;;34.76;32.93;98941.03;5050748;28;1278;-59
2021/07/20 10:17:36;;;;;;;;;;;;;;;34.86;33.08;98932.47;5051942;28;779;-59
2021/07/20 10:20:03;;;;;;;;;;;;;;;34.65;32.06;98944.41;5051570;28;854;-59
2021/07/20 10:22:50;;;;;;;;;;;;;;;34.51;32.63;98943.97;5051490;28;1910;-59
2021/07/20 10:25:20;;;;;;;;;;;;;;;34.76;33.25;98928.81;5040762;28;1342;-59
2021/07/20 10:28:13;;;;;;;;;;;;;;;35.17;31.31;98932.84;5051406;28;827;-59
2021/07/20 10:30:42;;;;;;;;;;;;;;;35.62;31.36;98931.97;5027153;28;1129;-59
2021/07/20 10:33:21;;;;;;;;;;;;;;;35.31;32.48;98930.31;5051649;28;826;-59
2021/07/20 10:35:54;;;;;;;;;;;;;;;35.14;31.38;98934.03;5051301;28;870;-59
2021/07/20 10:38:25;;;;;;;;;;;;;;;35.30;30.94;98930.94;5033369;28;1220;-59
2021/07/20 10:40:52;;;;;;;;;;;;;;;35.42;31.95;98900.31;5051849;28;1894;-59
2021/07/20 10:43:24;;;;;;;;;;;;;;;35.38;32.44;98926.59;5051267;28;926;-59
2021/07/20 10:45:51;;;;;;;;;;;;;;;35.51;32.58;98927.56;5051269;28;834;-59
2021/07/20 10:48:22;;;;;;;;;;;;;;;35.67;31.06;98919.44;5051295;28;787;-59
2021/07/20 10:50:51;;;;;;;;;;;;;;;35.95;30.45;98912.25;5051189;28;882;-59
2021/07/20 10:53:36;;;;;;;;;;;;;;;35.98;30.62;98911.06;5051271;28;880;-59
2021/07/20 10:56:21;;;;;;;;;;;;;;;36.08;30.80;98905.31;5051193;28;917;-59
2021/07/20 10:58:51;;;;;;;;;;;;;;;36.44;30.96;98906.56;5051480;28;834;-59
2021/07/20 11:01:26;;;;;;;;;;;;;;;36.65;30.31;98909.59;5050975;28;1976;-59
2021/07/20 11:04:11;;;;;;;;;;;;;;;35.75;31.15;98900.72;5051126;28;815;-60
2021/07/20 11:06:39;;;;;;;;;;;;;;;34.29;33.89;98905.63;5051131;28;846;-60
2021/07/20 11:09:15;;;;;;;;;;;;;;;33.64;36.47;98905.88;5050921;28;910;-59
2021/07/20 11:11:52;;;;;;;;;;;;;;;34.11;36.76;98898.34;5051057;28;846;-60
2021/07/20 11:14:22;;;;;;;;;;;;;;;34.63;35.87;98898.38;5050971;28;1353;-60
2021/07/20 11:16:50;;;;;;;;;;;;;;;35.17;35.75;98891.88;5050991;28;878;-60
2021/07/20 11:19:17;;;;;;;;;;;;;;;35.72;35.13;98895.41;5050988;28;838;-60
2021/07/20 11:21:46;;;;;;;;;;;;;;;35.84;35.14;98893.47;5050782;28;1917;-60
2021/07/20 11:24:16;;;;;;;;;;;;;;;35.61;34.96;98890.22;5050905;28;949;-60
2021/07/20 11:26:43;;;;;;;;;;;;;;;34.51;35.62;98900.19;5052906;28;1128;-60
2021/07/20 11:29:10;;;;;;;;;;;;;;;34.32;35.89;98892.97;5054879;28;839;-59
2021/07/20 11:31:41;;;;;;;;;;;;;;;34.11;36.84;98896.22;5055128;28;854;-59
2021/07/20 11:34:27;;;;;;;;;;;;;;;33.92;37.10;98896.78;5054409;28;1149;-60
2021/07/20 11:36:55;;;;;;;;;;;;;;;33.79;38.64;98899.22;5054333;28;866;-60
2021/07/20 11:39:23;;;;;;;;;;;;;;;34.15;37.72;98893.72;5054536;28;822;-60
2021/07/20 11:41:54;;;;;;;;;;;;;;;34.45;37.58;98886.13;5054536;28;1914;-60
2021/07/20 11:44:27;;;;;;;;;;;;;;;34.82;37.51;98899.81;5054368;28;819;-60
2021/07/20 11:46:58;;;;;;;;;;;;;;;34.97;37.17;98883.16;5054344;28;822;-60
2021/07/20 11:49:43;;;;;;;;;;;;;;;34.92;36.45;98889.16;5054272;28;842;-60
2021/07/20 11:52:36;;;;;;;;;;;;;;;35.26;36.78;98885.41;5054140;28;874;-60
2021/07/20 11:55:06;;;;;;;;;;;;;;;35.73;35.71;98885.44;5031210;28;1224;-60
2021/07/20 11:57:33;;;;;;;;;;;;;;;36.18;35.04;98883.09;5054107;28;862;-60
2021/07/20 12:00:09;;;;;;;;;;;;;;;36.27;35.01;98885.19;5054277;28;878;-60
2021/07/20 12:02:55;;;;;;;;;;;;;;;36.12;34.76;98894.84;5054125;28;1957;-60
2021/07/20 12:05:35;;;;;;;;;;;;;;;34.83;36.16;98884.13;5053760;28;1193;-60
2021/07/20 12:08:08;;;;;;;;;;;;;;;33.39;38.28;98897.25;5053773;28;866;-60
2021/07/20 12:10:45;;;;;;;;;;;;;;;32.42;39.76;98893.75;5053860;28;826;-60
2021/07/20 12:13:13;;;;;;;;;;;;;;;31.89;40.70;98893.28;5053892;28;899;-60
2021/07/20 12:15:40;;;;;;;;;;;;;;;32.73;39.73;98895.16;5053581;28;1435;-60
2021/07/20 12:18:07;;;;;;;;;;;;;;;33.97;38.12;98890.06;5053694;28;913;-61
2021/07/20 12:20:35;;;;;;;;;;;;;;;34.82;36.04;98883.34;5054119;28;1910;-60
2021/07/20 12:23:03;;;;;;;;;;;;;;;35.58;35.51;98878.56;5053712;28;819;-61
2021/07/20 12:25:31;;;;;;;;;;;;;;;35.76;34.93;98882.13;5053710;28;922;-60
2021/07/20 12:27:59;;;;;;;;;;;;;;;35.98;35.36;98877.31;5053841;28;830;-60
2021/07/20 12:30:27;;;;;;;;;;;;;;;36.43;34.88;98885.66;5053511;28;870;-60
2021/07/20 12:32:54;;;;;;;;;;;;;;;36.72;34.09;98876.25;5035945;28;957;-60
2021/07/20 12:35:21;;;;;;;;;;;;;;;36.21;34.54;98881.91;5053422;28;842;-60
2021/07/20 12:38:06;;;;;;;;;;;;;;;35.75;35.03;98876.97;5052796;28;926;-60
2021/07/20 12:40:33;;;;;;;;;;;;;;;35.65;35.19;98876.19;5053626;28;1953;-61
2021/07/20 12:43:07;;;;;;;;;;;;;;;35.90;34.74;98865.19;5053585;28;820;-60
2021/07/20 12:45:35;;;;;;;;;;;;;;;35.97;34.69;98875.78;5053140;28;802;-60
2021/07/20 12:48:01;;;;;;;;;;;;;;;36.21;34.55;98863.88;5053195;28;924;-61
2021/07/20 12:50:28;;;;;;;;;;;;;;;36.02;33.96;98876.09;5053105;28;840;-60
2021/07/20 12:52:56;;;;;;;;;;;;;;;35.48;34.06;98879.91;5052974;28;921;-60
2021/07/20 12:55:23;;;;;;;;;;;;;;;33.70;37.12;98878.50;5053060;28;845;-61
2021/07/20 12:57:53;;;;;;;;;;;;;;;32.48;39.21;98877.16;5052979;28;956;-60
2021/07/20 13:00:24;;;;;;;;;;;;;;;31.98;40.19;98874.03;5035256;28;831;-60
2021/07/20 13:02:56;;;;;;;;;;;;;;;31.44;41.55;98874.09;5052720;28;1882;-60
2021/07/20 13:05:25;;;;;;;;;;;;;;;31.22;42.16;98875.59;5053044;28;791;-60
2021/07/20 13:07:55;;;;;;;;;;;;;;;31.21;42.71;98871.97;5052909;28;802;-59
2021/07/20 13:10:22;;;;;;;;;;;;;;;31.25;42.58;98868.72;5052652;28;916;-60
2021/07/20 13:12:53;;;;;;;;;;;;;;;32.49;41.71;98876.56;5052674;28;880;-60
2021/07/20 13:15:22;;;;;;;;;;;;;;;33.97;38.98;98875.00;5052287;28;1409;-60
2021/07/20 13:17:50;;;;;;;;;;;;;;;35.04;37.01;98875.78;5052469;28;1074;-61
2021/07/20 13:20:18;;;;;;;;;;;;;;;35.24;35.65;98870.16;5052452;28;915;-60
2021/07/20 13:22:45;;;;;;;;;;;;;;;35.11;35.54;98874.91;5052429;28;1978;-60
2021/07/20 13:25:13;;;;;;;;;;;;;;;34.16;36.49;98874.41;5052483;28;940;-60
2021/07/20 13:27:41;;;;;;;;;;;;;;;33.08;38.47;98863.88;5052397;28;826;-60